createdAt,value
2022-12-16T00:04:19.826Z,54.33
2022-12-16T00:09:21.614Z,55.10
2022-12-16T00:14:23.383Z,54.82
2022-12-16T00:19:25.150Z,55.08
2022-12-16T00:24:26.931Z,55.22
2022-12-16T00:29:28.767Z,55.35
2022-12-16T00:34:30.638Z,55.20
2022-12-16T00:39:32.425Z,55.27
2022-12-16T00:44:34.201Z,55.24
2022-12-16T00:49:36.289Z,55.51
2022-12-16T00:54:38.043Z,55.47
2022-12-16T00:59:39.836Z,55.66
2022-12-16T01:04:41.627Z,55.18
2022-12-16T01:09:43.434Z,55.55
2022-12-16T01:14:45.252Z,55.25
2022-12-16T01:19:47.062Z,55.45
2022-12-16T01:24:49.176Z,55.65
2022-12-16T01:29:51.144Z,55.09
2022-12-16T01:34:55.392Z,55.55
2022-12-16T01:39:58.029Z,55.96
2022-12-16T01:45:24.826Z,56.08
2022-12-16T01:50:28.381Z,56.40
2022-12-16T01:55:42.057Z,55.98
2022-12-16T02:00:44.045Z,55.90
2022-12-16T02:05:47.626Z,55.80
2022-12-16T02:11:08.245Z,56.47
2022-12-16T02:16:23.919Z,56.23
2022-12-16T02:21:44.062Z,56.23
2022-12-16T02:27:07.650Z,56.06
2022-12-16T02:32:30.428Z,56.18
2022-12-16T02:37:45.381Z,56.15
2022-12-16T02:43:14.901Z,55.96
2022-12-16T02:48:17.077Z,56.04
2022-12-16T02:53:20.698Z,55.66
2022-12-16T02:58:32.873Z,56.22
2022-12-16T03:03:46.089Z,55.78
2022-12-16T03:08:52.351Z,55.59
2022-12-16T03:13:57.236Z,55.80
2022-12-16T03:19:07.027Z,56.16
2022-12-16T03:24:13.831Z,55.89
2022-12-16T03:29:37.125Z,55.27
2022-12-16T03:35:08.040Z,55.90
2022-12-16T03:40:11.913Z,55.57
2022-12-16T03:45:19.544Z,55.77
2022-12-16T03:50:26.684Z,55.42
2022-12-16T03:55:29.214Z,55.62
2022-12-16T04:00:31.197Z,55.56
2022-12-16T04:05:33.071Z,55.70
2022-12-16T04:10:53.574Z,55.31
2022-12-16T04:16:14.728Z,55.66
2022-12-16T04:21:55.692Z,55.55
2022-12-16T04:27:16.382Z,55.51
2022-12-16T04:32:18.229Z,55.87
2022-12-16T04:37:38.836Z,55.46
2022-12-16T04:42:59.665Z,55.19
2022-12-16T04:48:20.716Z,55.58
2022-12-16T04:53:42.059Z,55.15
2022-12-16T04:59:02.664Z,55.12
2022-12-16T05:04:23.312Z,55.34
2022-12-16T05:09:43.881Z,55.00
2022-12-16T05:15:04.399Z,54.78
2022-12-16T05:20:25.536Z,54.81
2022-12-16T05:25:46.169Z,54.68
2022-12-16T05:31:06.772Z,54.94
2022-12-16T05:36:27.458Z,55.28
2022-12-16T05:41:48.138Z,55.08
2022-12-16T05:47:08.721Z,54.60
2022-12-16T05:52:29.430Z,54.78
2022-12-16T05:57:49.993Z,54.40
2022-12-16T06:03:10.799Z,54.88
2022-12-16T06:08:31.248Z,55.15
2022-12-16T06:13:51.974Z,55.25
2022-12-16T06:19:12.755Z,55.21
2022-12-16T06:24:33.464Z,55.35
2022-12-16T06:29:54.090Z,55.25
2022-12-16T06:35:14.745Z,55.27
2022-12-16T06:40:35.280Z,54.97
2022-12-16T06:45:55.767Z,55.05
2022-12-16T06:51:16.520Z,55.31
2022-12-16T06:56:37.425Z,55.34
2022-12-16T07:01:58.330Z,55.27
2022-12-16T07:07:18.685Z,55.16
2022-12-16T07:12:47.437Z,55.46
2022-12-16T07:18:07.873Z,55.24
2022-12-16T07:23:28.561Z,55.13
2022-12-16T07:28:49.152Z,55.19
2022-12-16T07:34:09.842Z,55.14
2022-12-16T07:39:30.231Z,55.10
2022-12-16T07:44:50.981Z,55.22
2022-12-16T07:50:11.497Z,54.93
2022-12-16T07:55:32.148Z,54.65
2022-12-16T08:00:52.905Z,54.92
2022-12-16T08:06:13.515Z,55.06
2022-12-16T08:11:29.244Z,55.52
2022-12-16T08:16:50.012Z,56.09
2022-12-16T08:22:21.613Z,56.84
2022-12-16T08:27:42.716Z,57.05
2022-12-16T08:38:43.527Z,57.28
2022-12-16T08:44:03.612Z,56.62
2022-12-16T08:49:24.669Z,56.45
2022-12-16T08:54:45.221Z,56.06
2022-12-16T09:00:05.959Z,56.50
2022-12-16T09:05:26.662Z,56.42
2022-12-16T09:10:47.170Z,56.11
2022-12-16T09:16:07.255Z,56.04
2022-12-16T09:21:31.888Z,55.95
2022-12-16T09:26:54.167Z,56.19
2022-12-16T09:32:14.783Z,55.97
2022-12-16T09:37:35.490Z,56.36
2022-12-16T09:43:21.845Z,56.08
2022-12-16T09:48:53.154Z,56.19
2022-12-16T09:54:14.786Z,56.30
2022-12-16T09:59:42.075Z,56.37
2022-12-16T10:05:09.991Z,56.21
2022-12-16T10:10:52.656Z,56.36
2022-12-16T10:16:22.038Z,56.21
2022-12-16T10:22:06.553Z,56.29
2022-12-16T10:27:33.597Z,55.95
2022-12-16T10:33:01.277Z,56.20
2022-12-16T10:38:23.910Z,56.23
2022-12-16T10:43:56.899Z,55.82
2022-12-16T10:49:17.677Z,55.77
2022-12-16T10:54:39.412Z,55.35
2022-12-16T11:00:00.105Z,55.46
2022-12-16T11:05:20.777Z,55.72
2022-12-16T11:11:01.877Z,55.97
2022-12-16T11:16:42.792Z,55.76
2022-12-16T11:22:03.952Z,55.80
2022-12-16T11:27:40.704Z,55.57
2022-12-16T11:33:44.524Z,55.91
2022-12-16T11:39:07.461Z,55.88
2022-12-16T11:44:36.479Z,55.54
2022-12-16T11:49:56.999Z,55.56
2022-12-16T11:55:48.019Z,56.01
2022-12-16T12:01:22.154Z,55.88
2022-12-16T12:07:08.786Z,55.71
2022-12-16T12:12:35.277Z,56.06
2022-12-16T12:18:17.612Z,56.22
2022-12-16T12:23:51.266Z,56.30
2022-12-16T12:29:31.304Z,56.49
2022-12-16T12:35:05.665Z,56.13
2022-12-16T12:40:49.284Z,55.97
2022-12-16T12:46:22.071Z,55.79
2022-12-16T12:51:46.410Z,55.66
2022-12-16T12:57:09.920Z,55.64
2022-12-16T13:02:39.802Z,56.52
2022-12-16T13:08:20.362Z,55.92
2022-12-16T13:13:49.805Z,56.26
2022-12-16T13:19:48.058Z,56.06
2022-12-16T13:25:10.153Z,56.70
2022-12-16T13:30:30.528Z,56.95
2022-12-16T13:35:51.455Z,57.39
2022-12-16T13:41:23.363Z,57.87
2022-12-16T13:47:03.920Z,58.21
2022-12-16T13:52:34.915Z,57.94
2022-12-16T13:58:00.180Z,57.80
2022-12-16T14:03:23.710Z,58.02
2022-12-16T14:08:44.859Z,58.29
2022-12-16T14:14:08.204Z,58.25
2022-12-16T14:19:43.693Z,58.17
2022-12-16T14:25:04.460Z,57.88
2022-12-16T14:30:51.291Z,58.05
2022-12-16T14:36:11.491Z,57.76
2022-12-16T14:41:39.429Z,56.82
2022-12-16T14:46:59.982Z,57.05
2022-12-16T14:52:22.136Z,57.06
2022-12-16T14:57:45.278Z,56.84
2022-12-16T15:03:10.029Z,57.20
2022-12-16T15:08:31.613Z,57.71
2022-12-16T15:13:56.658Z,57.19
2022-12-16T15:19:22.944Z,57.60
2022-12-16T15:24:45.486Z,58.21
2022-12-16T15:30:06.237Z,58.70
2022-12-16T15:35:27.385Z,58.55
2022-12-16T15:40:53.021Z,58.44
2022-12-16T15:46:13.661Z,58.99
2022-12-16T15:51:50.454Z,58.80
2022-12-16T15:57:11.136Z,58.62
2022-12-16T16:02:44.687Z,59.18
2022-12-16T16:08:06.275Z,58.65
2022-12-16T16:13:27.984Z,58.71
2022-12-16T16:18:48.559Z,58.54
2022-12-16T16:24:09.133Z,58.13
2022-12-16T16:29:29.924Z,57.84
2022-12-16T16:34:50.130Z,57.93
2022-12-16T16:40:10.758Z,57.89
2022-12-16T16:45:31.116Z,58.03
2022-12-16T16:50:51.589Z,57.62
2022-12-16T16:56:18.094Z,57.26
2022-12-16T17:01:40.243Z,57.57
2022-12-16T17:07:01.046Z,58.13
2022-12-16T17:12:33.496Z,58.16
2022-12-16T17:17:53.839Z,58.01
2022-12-16T17:23:34.449Z,57.95
2022-12-16T17:28:54.952Z,57.98
2022-12-16T17:34:15.259Z,57.74
2022-12-16T17:39:35.692Z,57.61
2022-12-16T17:44:56.296Z,57.58
2022-12-16T17:50:16.546Z,57.50
2022-12-16T17:55:36.824Z,57.91
2022-12-16T18:00:57.789Z,58.25
2022-12-16T18:06:18.296Z,58.70
2022-12-16T18:11:39.103Z,58.87
2022-12-16T18:16:59.603Z,58.33
2022-12-16T18:22:20.412Z,58.21
2022-12-16T18:27:40.846Z,58.50
2022-12-16T18:33:01.074Z,58.31
2022-12-16T18:38:21.475Z,58.52
2022-12-16T18:43:41.661Z,58.47
2022-12-16T18:49:02.202Z,58.26
2022-12-16T18:54:22.843Z,58.40
2022-12-16T18:59:43.244Z,58.47
2022-12-16T19:05:03.689Z,58.24
2022-12-16T19:10:24.729Z,58.66
2022-12-16T19:15:45.598Z,58.54
2022-12-16T19:21:13.533Z,58.60
2022-12-16T19:26:36.926Z,58.64
2022-12-16T19:31:57.248Z,58.57
2022-12-16T19:37:17.612Z,58.66
2022-12-16T19:42:37.879Z,58.60
2022-12-16T19:47:58.352Z,58.78
2022-12-16T19:53:18.649Z,58.87
2022-12-16T19:58:40.107Z,59.16
2022-12-16T20:04:00.535Z,59.16
2022-12-16T20:09:20.841Z,58.71
2022-12-16T20:14:41.946Z,58.82
2022-12-16T20:20:05.388Z,59.24
2022-12-16T20:25:26.368Z,58.83
2022-12-16T20:30:46.694Z,58.72
2022-12-16T20:36:22.477Z,59.10
2022-12-16T20:41:44.391Z,59.06
2022-12-16T20:47:04.924Z,59.05
2022-12-16T20:52:25.828Z,59.36
2022-12-16T20:57:46.204Z,58.84
2022-12-16T21:03:07.067Z,58.94
2022-12-16T21:08:32.118Z,59.30
2022-12-16T21:13:56.513Z,59.41
2022-12-16T21:19:17.241Z,59.16
2022-12-16T21:24:37.492Z,59.40
2022-12-16T21:29:57.783Z,59.39
2022-12-16T21:35:18.175Z,59.34
2022-12-16T21:40:39.255Z,59.53
2022-12-16T21:45:59.682Z,59.11
2022-12-16T21:51:20.531Z,59.01
2022-12-16T21:56:41.125Z,59.28
2022-12-16T22:02:01.875Z,59.17
2022-12-16T22:07:22.446Z,59.50
2022-12-16T22:12:43.011Z,59.46
2022-12-16T22:18:03.766Z,59.46
2022-12-16T22:23:28.237Z,59.37
2022-12-16T22:28:48.891Z,59.03
2022-12-16T22:34:10.612Z,58.90
2022-12-16T22:39:31.472Z,58.68
2022-12-16T22:44:51.833Z,58.97
2022-12-16T22:50:12.621Z,58.88
2022-12-16T22:55:33.126Z,58.79
2022-12-16T23:00:53.656Z,58.61
2022-12-16T23:06:16.957Z,58.49
2022-12-16T23:11:50.168Z,58.35
2022-12-16T23:17:10.669Z,58.36
2022-12-16T23:22:31.349Z,58.51
2022-12-16T23:27:51.991Z,58.74
2022-12-16T23:33:17.591Z,58.78
2022-12-16T23:38:37.864Z,58.81
2022-12-16T23:43:58.451Z,59.14
2022-12-16T23:49:19.119Z,58.79
2022-12-16T23:54:39.965Z,58.87
